sensor_id;sensor_type;location;lat;lon;timestamp;P1;durP1;ratioP1;P2;durP2;ratioP2
5752;SDS011;2901;42.140;24.760;2023-09-07T00:01:44;12.57;;;11.50;;
5752;SDS011;2901;42.140;24.760;2023-09-07T00:04:10;13.07;;;11.13;;
5752;SDS011;2901;42.140;24.760;2023-09-07T00:06:35;10.85;;;10.10;;
5752;SDS011;2901;42.140;24.760;2023-09-07T00:09:01;13.95;;;11.35;;
5752;SDS011;2901;42.140;24.760;2023-09-07T00:11:27;10.38;;;9.75;;
5752;SDS011;2901;42.140;24.760;2023-09-07T00:13:53;10.27;;;9.45;;
5752;SDS011;2901;42.140;24.760;2023-09-07T00:16:18;11.35;;;9.40;;
5752;SDS011;2901;42.140;24.760;2023-09-07T00:18:43;10.45;;;9.85;;
5752;SDS011;2901;42.140;24.760;2023-09-07T00:21:09;10.23;;;9.40;;
5752;SDS011;2901;42.140;24.760;2023-09-07T00:23:34;11.52;;;9.38;;
5752;SDS011;2901;42.140;24.760;2023-09-07T00:26:00;10.35;;;9.25;;
5752;SDS011;2901;42.140;24.760;2023-09-07T00:28:25;9.88;;;9.10;;
5752;SDS011;2901;42.140;24.760;2023-09-07T00:30:50;10.30;;;9.38;;
5752;SDS011;2901;42.140;24.760;2023-09-07T00:33:16;21.80;;;9.02;;
5752;SDS011;2901;42.140;24.760;2023-09-07T00:35:41;10.40;;;9.40;;
5752;SDS011;2901;42.140;24.760;2023-09-07T00:38:07;9.70;;;7.88;;
5752;SDS011;2901;42.140;24.760;2023-09-07T00:40:32;8.45;;;7.95;;
5752;SDS011;2901;42.140;24.760;2023-09-07T00:42:58;9.35;;;8.48;;
5752;SDS011;2901;42.140;24.760;2023-09-07T00:45:23;8.45;;;7.60;;
5752;SDS011;2901;42.140;24.760;2023-09-07T00:47:49;8.30;;;7.55;;
5752;SDS011;2901;42.140;24.760;2023-09-07T00:50:14;8.23;;;7.63;;
5752;SDS011;2901;42.140;24.760;2023-09-07T00:52:44;7.88;;;7.28;;
5752;SDS011;2901;42.140;24.760;2023-09-07T00:55:11;7.50;;;6.97;;
5752;SDS011;2901;42.140;24.760;2023-09-07T00:57:38;7.88;;;7.25;;
5752;SDS011;2901;42.140;24.760;2023-09-07T01:00:07;7.40;;;6.72;;
5752;SDS011;2901;42.140;24.760;2023-09-07T01:02:34;7.50;;;6.80;;
5752;SDS011;2901;42.140;24.760;2023-09-07T01:05:01;7.85;;;7.10;;
5752;SDS011;2901;42.140;24.760;2023-09-07T01:07:32;6.90;;;6.53;;
5752;SDS011;2901;42.140;24.760;2023-09-07T01:10:02;7.68;;;7.10;;
5752;SDS011;2901;42.140;24.760;2023-09-07T01:12:28;9.10;;;6.68;;
5752;SDS011;2901;42.140;24.760;2023-09-07T01:14:54;9.30;;;6.93;;
5752;SDS011;2901;42.140;24.760;2023-09-07T01:17:19;6.75;;;6.25;;
5752;SDS011;2901;42.140;24.760;2023-09-07T01:19:46;8.88;;;7.60;;
5752;SDS011;2901;42.140;24.760;2023-09-07T01:22:16;6.97;;;6.57;;
5752;SDS011;2901;42.140;24.760;2023-09-07T01:24:44;7.20;;;6.63;;
5752;SDS011;2901;42.140;24.760;2023-09-07T01:27:10;6.00;;;5.68;;
5752;SDS011;2901;42.140;24.760;2023-09-07T01:29:38;7.13;;;5.50;;
5752;SDS011;2901;42.140;24.760;2023-09-07T01:32:04;5.88;;;5.53;;
5752;SDS011;2901;42.140;24.760;2023-09-07T01:34:30;7.78;;;6.28;;
5752;SDS011;2901;42.140;24.760;2023-09-07T01:36:56;6.93;;;5.68;;
5752;SDS011;2901;42.140;24.760;2023-09-07T01:39:21;5.97;;;5.53;;
5752;SDS011;2901;42.140;24.760;2023-09-07T01:41:47;7.60;;;7.00;;
5752;SDS011;2901;42.140;24.760;2023-09-07T01:44:13;7.90;;;7.28;;
5752;SDS011;2901;42.140;24.760;2023-09-07T01:46:38;9.50;;;8.85;;
5752;SDS011;2901;42.140;24.760;2023-09-07T01:49:03;12.00;;;11.00;;
5752;SDS011;2901;42.140;24.760;2023-09-07T01:51:29;11.55;;;10.60;;
5752;SDS011;2901;42.140;24.760;2023-09-07T01:53:54;13.52;;;11.02;;
5752;SDS011;2901;42.140;24.760;2023-09-07T01:56:20;12.73;;;11.50;;
5752;SDS011;2901;42.140;24.760;2023-09-07T01:58:45;15.63;;;11.85;;
5752;SDS011;2901;42.140;24.760;2023-09-07T02:01:24;12.07;;;11.13;;
5752;SDS011;2901;42.140;24.760;2023-09-07T02:03:51;13.50;;;12.38;;
5752;SDS011;2901;42.140;24.760;2023-09-07T02:06:17;13.40;;;12.10;;
5752;SDS011;2901;42.140;24.760;2023-09-07T02:08:43;13.27;;;12.15;;
5752;SDS011;2901;42.140;24.760;2023-09-07T02:11:08;12.43;;;11.23;;
5752;SDS011;2901;42.140;24.760;2023-09-07T02:13:34;12.60;;;11.32;;
5752;SDS011;2901;42.140;24.760;2023-09-07T02:16:03;12.60;;;11.50;;
5752;SDS011;2901;42.140;24.760;2023-09-07T02:18:31;12.10;;;11.13;;
5752;SDS011;2901;42.140;24.760;2023-09-07T02:21:01;12.35;;;11.45;;
5752;SDS011;2901;42.140;24.760;2023-09-07T02:23:33;12.63;;;11.52;;
5752;SDS011;2901;42.140;24.760;2023-09-07T02:26:01;12.65;;;11.45;;
5752;SDS011;2901;42.140;24.760;2023-09-07T02:28:26;13.88;;;12.80;;
5752;SDS011;2901;42.140;24.760;2023-09-07T02:30:52;16.05;;;14.32;;
5752;SDS011;2901;42.140;24.760;2023-09-07T02:33:17;18.58;;;16.25;;
5752;SDS011;2901;42.140;24.760;2023-09-07T02:35:43;19.00;;;17.35;;
5752;SDS011;2901;42.140;24.760;2023-09-07T02:38:08;21.13;;;19.05;;
5752;SDS011;2901;42.140;24.760;2023-09-07T02:40:43;21.20;;;19.25;;
5752;SDS011;2901;42.140;24.760;2023-09-07T02:43:09;22.33;;;20.00;;
5752;SDS011;2901;42.140;24.760;2023-09-07T02:45:35;21.42;;;19.33;;
5752;SDS011;2901;42.140;24.760;2023-09-07T02:48:01;21.05;;;19.05;;
5752;SDS011;2901;42.140;24.760;2023-09-07T02:50:28;20.50;;;18.65;;
5752;SDS011;2901;42.140;24.760;2023-09-07T02:52:54;27.23;;;19.25;;
5752;SDS011;2901;42.140;24.760;2023-09-07T02:55:20;23.15;;;20.75;;
5752;SDS011;2901;42.140;24.760;2023-09-07T02:57:45;23.98;;;21.55;;
5752;SDS011;2901;42.140;24.760;2023-09-07T03:00:11;22.10;;;20.33;;
5752;SDS011;2901;42.140;24.760;2023-09-07T03:02:36;23.83;;;21.83;;
5752;SDS011;2901;42.140;24.760;2023-09-07T03:05:02;24.67;;;22.45;;
5752;SDS011;2901;42.140;24.760;2023-09-07T03:07:32;24.80;;;22.25;;
5752;SDS011;2901;42.140;24.760;2023-09-07T03:09:58;25.02;;;22.58;;
5752;SDS011;2901;42.140;24.760;2023-09-07T03:12:24;30.85;;;24.65;;
5752;SDS011;2901;42.140;24.760;2023-09-07T03:14:49;28.33;;;24.88;;
5752;SDS011;2901;42.140;24.760;2023-09-07T03:17:18;28.05;;;25.25;;
5752;SDS011;2901;42.140;24.760;2023-09-07T03:19:45;29.33;;;26.35;;
5752;SDS011;2901;42.140;24.760;2023-09-07T03:22:13;27.20;;;24.42;;
5752;SDS011;2901;42.140;24.760;2023-09-07T03:24:39;29.00;;;25.48;;
5752;SDS011;2901;42.140;24.760;2023-09-07T03:27:05;27.90;;;25.30;;
5752;SDS011;2901;42.140;24.760;2023-09-07T03:29:30;28.67;;;25.88;;
5752;SDS011;2901;42.140;24.760;2023-09-07T03:31:58;28.10;;;25.08;;
5752;SDS011;2901;42.140;24.760;2023-09-07T03:34:24;30.75;;;26.45;;
5752;SDS011;2901;42.140;24.760;2023-09-07T03:36:49;28.80;;;25.73;;
5752;SDS011;2901;42.140;24.760;2023-09-07T03:39:15;29.00;;;25.95;;
5752;SDS011;2901;42.140;24.760;2023-09-07T03:41:40;28.52;;;26.08;;
5752;SDS011;2901;42.140;24.760;2023-09-07T03:44:05;30.90;;;24.83;;
5752;SDS011;2901;42.140;24.760;2023-09-07T03:46:31;28.55;;;25.48;;
5752;SDS011;2901;42.140;24.760;2023-09-07T03:48:56;28.50;;;25.80;;
5752;SDS011;2901;42.140;24.760;2023-09-07T03:51:22;26.58;;;23.95;;
5752;SDS011;2901;42.140;24.760;2023-09-07T03:53:47;28.55;;;24.27;;
5752;SDS011;2901;42.140;24.760;2023-09-07T03:56:12;26.92;;;24.15;;
5752;SDS011;2901;42.140;24.760;2023-09-07T03:58:38;26.20;;;23.63;;
5752;SDS011;2901;42.140;24.760;2023-09-07T04:01:03;25.88;;;23.40;;
5752;SDS011;2901;42.140;24.760;2023-09-07T04:03:29;25.15;;;22.52;;
5752;SDS011;2901;42.140;24.760;2023-09-07T04:05:55;25.23;;;22.67;;
5752;SDS011;2901;42.140;24.760;2023-09-07T04:08:20;24.48;;;22.13;;
5752;SDS011;2901;42.140;24.760;2023-09-07T04:10:46;24.23;;;21.80;;
5752;SDS011;2901;42.140;24.760;2023-09-07T04:13:11;24.42;;;22.05;;
5752;SDS011;2901;42.140;24.760;2023-09-07T04:15:43;25.20;;;22.95;;
5752;SDS011;2901;42.140;24.760;2023-09-07T04:18:12;31.20;;;22.70;;
5752;SDS011;2901;42.140;24.760;2023-09-07T04:20:40;25.20;;;22.40;;
5752;SDS011;2901;42.140;24.760;2023-09-07T04:23:06;24.25;;;21.80;;
5752;SDS011;2901;42.140;24.760;2023-09-07T04:25:31;23.98;;;21.80;;
5752;SDS011;2901;42.140;24.760;2023-09-07T04:27:57;26.13;;;22.70;;
5752;SDS011;2901;42.140;24.760;2023-09-07T04:30:23;26.15;;;22.40;;
5752;SDS011;2901;42.140;24.760;2023-09-07T04:32:49;24.20;;;21.23;;
5752;SDS011;2901;42.140;24.760;2023-09-07T04:35:14;23.52;;;21.17;;
5752;SDS011;2901;42.140;24.760;2023-09-07T04:37:43;24.30;;;21.60;;
5752;SDS011;2901;42.140;24.760;2023-09-07T04:40:09;23.33;;;21.23;;
5752;SDS011;2901;42.140;24.760;2023-09-07T04:42:35;21.60;;;19.45;;
5752;SDS011;2901;42.140;24.760;2023-09-07T04:45:00;23.02;;;19.67;;
5752;SDS011;2901;42.140;24.760;2023-09-07T04:47:26;22.30;;;19.77;;
5752;SDS011;2901;42.140;24.760;2023-09-07T04:49:51;22.60;;;20.48;;
5752;SDS011;2901;42.140;24.760;2023-09-07T04:52:17;22.92;;;20.67;;
5752;SDS011;2901;42.140;24.760;2023-09-07T04:54:43;23.05;;;19.40;;
5752;SDS011;2901;42.140;24.760;2023-09-07T04:57:09;22.65;;;20.35;;
5752;SDS011;2901;42.140;24.760;2023-09-07T04:59:34;26.30;;;21.77;;
5752;SDS011;2901;42.140;24.760;2023-09-07T05:02:00;30.13;;;20.08;;
5752;SDS011;2901;42.140;24.760;2023-09-07T05:04:26;22.08;;;19.85;;
5752;SDS011;2901;42.140;24.760;2023-09-07T05:06:52;29.83;;;20.25;;
5752;SDS011;2901;42.140;24.760;2023-09-07T05:09:18;22.15;;;19.75;;
5752;SDS011;2901;42.140;24.760;2023-09-07T05:11:45;21.60;;;19.45;;
5752;SDS011;2901;42.140;24.760;2023-09-07T05:14:10;22.83;;;20.08;;
5752;SDS011;2901;42.140;24.760;2023-09-07T05:16:36;35.72;;;21.25;;
5752;SDS011;2901;42.140;24.760;2023-09-07T05:19:01;24.35;;;20.70;;
5752;SDS011;2901;42.140;24.760;2023-09-07T05:21:27;20.77;;;18.50;;
5752;SDS011;2901;42.140;24.760;2023-09-07T05:23:52;22.75;;;18.95;;
5752;SDS011;2901;42.140;24.760;2023-09-07T05:26:21;20.05;;;18.05;;
5752;SDS011;2901;42.140;24.760;2023-09-07T05:28:49;20.30;;;18.25;;
5752;SDS011;2901;42.140;24.760;2023-09-07T05:31:14;22.15;;;19.13;;
5752;SDS011;2901;42.140;24.760;2023-09-07T05:33:39;18.77;;;17.23;;
5752;SDS011;2901;42.140;24.760;2023-09-07T05:36:05;21.92;;;17.88;;
5752;SDS011;2901;42.140;24.760;2023-09-07T05:38:30;20.13;;;17.55;;
5752;SDS011;2901;42.140;24.760;2023-09-07T05:40:55;19.05;;;17.20;;
5752;SDS011;2901;42.140;24.760;2023-09-07T05:43:21;25.23;;;18.95;;
5752;SDS011;2901;42.140;24.760;2023-09-07T05:45:46;26.83;;;17.98;;
5752;SDS011;2901;42.140;24.760;2023-09-07T05:48:12;25.45;;;18.75;;
5752;SDS011;2901;42.140;24.760;2023-09-07T05:50:38;22.23;;;17.90;;
5752;SDS011;2901;42.140;24.760;2023-09-07T05:53:04;20.67;;;18.17;;
5752;SDS011;2901;42.140;24.760;2023-09-07T05:55:30;27.85;;;19.48;;
5752;SDS011;2901;42.140;24.760;2023-09-07T05:57:56;26.40;;;18.75;;
5752;SDS011;2901;42.140;24.760;2023-09-07T06:00:22;22.92;;;18.90;;
5752;SDS011;2901;42.140;24.760;2023-09-07T06:02:48;23.65;;;17.23;;
5752;SDS011;2901;42.140;24.760;2023-09-07T06:05:14;24.83;;;17.70;;
5752;SDS011;2901;42.140;24.760;2023-09-07T06:07:39;18.98;;;17.10;;
5752;SDS011;2901;42.140;24.760;2023-09-07T06:10:05;20.15;;;16.67;;
5752;SDS011;2901;42.140;24.760;2023-09-07T06:12:32;22.10;;;16.10;;
5752;SDS011;2901;42.140;24.760;2023-09-07T06:14:58;21.52;;;16.10;;
5752;SDS011;2901;42.140;24.760;2023-09-07T06:17:24;18.63;;;16.70;;
5752;SDS011;2901;42.140;24.760;2023-09-07T06:19:49;20.55;;;16.83;;
5752;SDS011;2901;42.140;24.760;2023-09-07T06:22:14;21.95;;;16.38;;
5752;SDS011;2901;42.140;24.760;2023-09-07T06:24:40;20.58;;;16.83;;
5752;SDS011;2901;42.140;24.760;2023-09-07T06:27:05;21.85;;;14.52;;
5752;SDS011;2901;42.140;24.760;2023-09-07T06:29:30;20.35;;;15.32;;
5752;SDS011;2901;42.140;24.760;2023-09-07T06:31:56;36.42;;;17.33;;
5752;SDS011;2901;42.140;24.760;2023-09-07T06:34:21;17.48;;;15.43;;
5752;SDS011;2901;42.140;24.760;2023-09-07T06:36:46;37.65;;;16.42;;
5752;SDS011;2901;42.140;24.760;2023-09-07T06:39:12;30.70;;;16.50;;
5752;SDS011;2901;42.140;24.760;2023-09-07T06:41:37;25.90;;;15.52;;
5752;SDS011;2901;42.140;24.760;2023-09-07T06:44:03;19.60;;;14.30;;
5752;SDS011;2901;42.140;24.760;2023-09-07T06:46:28;22.77;;;15.77;;
5752;SDS011;2901;42.140;24.760;2023-09-07T06:48:54;19.50;;;14.57;;
5752;SDS011;2901;42.140;24.760;2023-09-07T06:51:19;19.33;;;15.75;;
5752;SDS011;2901;42.140;24.760;2023-09-07T06:53:44;18.63;;;15.52;;
5752;SDS011;2901;42.140;24.760;2023-09-07T06:56:10;21.73;;;16.00;;
5752;SDS011;2901;42.140;24.760;2023-09-07T06:58:35;16.10;;;14.70;;
5752;SDS011;2901;42.140;24.760;2023-09-07T07:01:01;19.25;;;14.15;;
5752;SDS011;2901;42.140;24.760;2023-09-07T07:03:28;14.80;;;12.93;;
5752;SDS011;2901;42.140;24.760;2023-09-07T07:05:54;12.45;;;11.45;;
5752;SDS011;2901;42.140;24.760;2023-09-07T07:08:20;13.50;;;12.20;;
5752;SDS011;2901;42.140;24.760;2023-09-07T07:10:45;16.08;;;13.50;;
5752;SDS011;2901;42.140;24.760;2023-09-07T07:13:11;14.43;;;12.07;;
5752;SDS011;2901;42.140;24.760;2023-09-07T07:15:36;13.30;;;12.13;;
5752;SDS011;2901;42.140;24.760;2023-09-07T07:18:02;21.65;;;12.18;;
5752;SDS011;2901;42.140;24.760;2023-09-07T07:20:33;11.10;;;10.38;;
5752;SDS011;2901;42.140;24.760;2023-09-07T07:22:59;10.88;;;10.05;;
5752;SDS011;2901;42.140;24.760;2023-09-07T07:25:25;12.27;;;10.75;;
5752;SDS011;2901;42.140;24.760;2023-09-07T07:27:50;16.85;;;11.15;;
5752;SDS011;2901;42.140;24.760;2023-09-07T07:30:16;11.40;;;10.20;;
5752;SDS011;2901;42.140;24.760;2023-09-07T07:32:41;10.35;;;9.65;;
5752;SDS011;2901;42.140;24.760;2023-09-07T07:35:07;12.07;;;10.95;;
5752;SDS011;2901;42.140;24.760;2023-09-07T07:37:32;12.82;;;11.52;;
5752;SDS011;2901;42.140;24.760;2023-09-07T07:39:58;12.65;;;11.63;;
5752;SDS011;2901;42.140;24.760;2023-09-07T07:42:23;11.13;;;9.80;;
5752;SDS011;2901;42.140;24.760;2023-09-07T07:44:48;20.60;;;10.77;;
5752;SDS011;2901;42.140;24.760;2023-09-07T07:47:14;10.38;;;9.80;;
5752;SDS011;2901;42.140;24.760;2023-09-07T07:49:39;10.85;;;9.80;;
5752;SDS011;2901;42.140;24.760;2023-09-07T07:52:05;10.45;;;9.82;;
5752;SDS011;2901;42.140;24.760;2023-09-07T07:54:30;13.10;;;10.07;;
5752;SDS011;2901;42.140;24.760;2023-09-07T07:56:55;11.90;;;9.88;;
5752;SDS011;2901;42.140;24.760;2023-09-07T07:59:21;12.27;;;9.98;;
5752;SDS011;2901;42.140;24.760;2023-09-07T08:01:46;10.27;;;9.57;;
5752;SDS011;2901;42.140;24.760;2023-09-07T08:04:12;11.38;;;9.20;;
5752;SDS011;2901;42.140;24.760;2023-09-07T08:06:37;11.40;;;10.27;;
5752;SDS011;2901;42.140;24.760;2023-09-07T08:09:02;10.70;;;9.32;;
5752;SDS011;2901;42.140;24.760;2023-09-07T08:11:28;11.85;;;9.98;;
5752;SDS011;2901;42.140;24.760;2023-09-07T08:13:53;10.23;;;9.27;;
5752;SDS011;2901;42.140;24.760;2023-09-07T08:16:19;11.82;;;10.27;;
5752;SDS011;2901;42.140;24.760;2023-09-07T08:18:44;10.52;;;9.60;;
5752;SDS011;2901;42.140;24.760;2023-09-07T08:21:10;14.63;;;8.80;;
5752;SDS011;2901;42.140;24.760;2023-09-07T08:23:37;9.68;;;8.73;;
5752;SDS011;2901;42.140;24.760;2023-09-07T08:26:02;10.30;;;8.40;;
5752;SDS011;2901;42.140;24.760;2023-09-07T08:28:28;9.02;;;8.13;;
5752;SDS011;2901;42.140;24.760;2023-09-07T08:30:54;15.25;;;9.15;;
5752;SDS011;2901;42.140;24.760;2023-09-07T08:33:23;9.52;;;8.48;;
5752;SDS011;2901;42.140;24.760;2023-09-07T08:35:54;9.52;;;8.63;;
5752;SDS011;2901;42.140;24.760;2023-09-07T08:38:22;10.45;;;7.63;;
5752;SDS011;2901;42.140;24.760;2023-09-07T08:40:51;7.30;;;6.65;;
5752;SDS011;2901;42.140;24.760;2023-09-07T08:43:18;7.80;;;7.10;;
5752;SDS011;2901;42.140;24.760;2023-09-07T08:45:50;8.40;;;6.80;;
5752;SDS011;2901;42.140;24.760;2023-09-07T08:48:24;7.82;;;7.03;;
5752;SDS011;2901;42.140;24.760;2023-09-07T08:50:51;8.80;;;7.90;;
5752;SDS011;2901;42.140;24.760;2023-09-07T08:53:18;9.95;;;7.53;;
5752;SDS011;2901;42.140;24.760;2023-09-07T08:55:45;8.88;;;7.95;;
5752;SDS011;2901;42.140;24.760;2023-09-07T08:58:10;10.25;;;9.27;;
5752;SDS011;2901;42.140;24.760;2023-09-07T09:00:36;12.30;;;9.65;;
5752;SDS011;2901;42.140;24.760;2023-09-07T09:03:03;8.70;;;8.18;;
5752;SDS011;2901;42.140;24.760;2023-09-07T09:05:29;11.45;;;10.07;;
5752;SDS011;2901;42.140;24.760;2023-09-07T09:08:02;19.85;;;11.57;;
5752;SDS011;2901;42.140;24.760;2023-09-07T09:10:29;8.85;;;8.35;;
5752;SDS011;2901;42.140;24.760;2023-09-07T09:12:54;10.70;;;9.48;;
5752;SDS011;2901;42.140;24.760;2023-09-07T09:15:21;11.35;;;9.38;;
5752;SDS011;2901;42.140;24.760;2023-09-07T09:17:46;9.57;;;8.52;;
5752;SDS011;2901;42.140;24.760;2023-09-07T09:20:22;10.63;;;9.65;;
5752;SDS011;2901;42.140;24.760;2023-09-07T09:22:54;9.10;;;8.68;;
5752;SDS011;2901;42.140;24.760;2023-09-07T09:25:20;10.60;;;9.73;;
5752;SDS011;2901;42.140;24.760;2023-09-07T09:27:46;12.13;;;11.07;;
5752;SDS011;2901;42.140;24.760;2023-09-07T09:30:13;10.63;;;9.57;;
5752;SDS011;2901;42.140;24.760;2023-09-07T09:32:41;10.32;;;8.73;;
5752;SDS011;2901;42.140;24.760;2023-09-07T09:35:09;10.82;;;8.95;;
5752;SDS011;2901;42.140;24.760;2023-09-07T09:37:44;9.27;;;8.73;;
5752;SDS011;2901;42.140;24.760;2023-09-07T09:40:13;10.65;;;8.32;;
5752;SDS011;2901;42.140;24.760;2023-09-07T09:42:42;8.90;;;8.00;;
5752;SDS011;2901;42.140;24.760;2023-09-07T09:45:09;12.15;;;7.80;;
5752;SDS011;2901;42.140;24.760;2023-09-07T09:47:38;9.27;;;8.45;;
5752;SDS011;2901;42.140;24.760;2023-09-07T09:50:06;8.68;;;7.55;;
5752;SDS011;2901;42.140;24.760;2023-09-07T09:52:35;8.40;;;7.30;;
5752;SDS011;2901;42.140;24.760;2023-09-07T09:55:02;7.82;;;7.10;;
5752;SDS011;2901;42.140;24.760;2023-09-07T09:57:32;10.43;;;7.50;;
5752;SDS011;2901;42.140;24.760;2023-09-07T09:59:58;11.52;;;7.57;;
5752;SDS011;2901;42.140;24.760;2023-09-07T10:02:24;8.32;;;7.68;;
5752;SDS011;2901;42.140;24.760;2023-09-07T10:04:51;8.88;;;7.60;;
5752;SDS011;2901;42.140;24.760;2023-09-07T10:07:18;8.40;;;7.65;;
5752;SDS011;2901;42.140;24.760;2023-09-07T10:09:44;8.60;;;7.22;;
5752;SDS011;2901;42.140;24.760;2023-09-07T10:12:12;7.95;;;7.13;;
5752;SDS011;2901;42.140;24.760;2023-09-07T10:14:38;7.32;;;6.93;;
5752;SDS011;2901;42.140;24.760;2023-09-07T10:17:07;7.57;;;7.03;;
5752;SDS011;2901;42.140;24.760;2023-09-07T10:19:34;8.95;;;8.13;;
5752;SDS011;2901;42.140;24.760;2023-09-07T10:22:02;8.60;;;7.40;;
5752;SDS011;2901;42.140;24.760;2023-09-07T10:24:32;7.50;;;7.00;;
5752;SDS011;2901;42.140;24.760;2023-09-07T10:27:05;8.23;;;6.65;;
5752;SDS011;2901;42.140;24.760;2023-09-07T10:29:50;7.25;;;6.80;;
5752;SDS011;2901;42.140;24.760;2023-09-07T10:32:19;13.43;;;8.25;;
5752;SDS011;2901;42.140;24.760;2023-09-07T10:34:44;14.02;;;8.35;;
5752;SDS011;2901;42.140;24.760;2023-09-07T10:37:10;8.60;;;7.03;;
5752;SDS011;2901;42.140;24.760;2023-09-07T10:39:38;7.50;;;6.88;;
5752;SDS011;2901;42.140;24.760;2023-09-07T10:42:08;9.00;;;7.75;;
5752;SDS011;2901;42.140;24.760;2023-09-07T10:44:34;10.93;;;6.63;;
5752;SDS011;2901;42.140;24.760;2023-09-07T10:46:59;10.32;;;6.90;;
5752;SDS011;2901;42.140;24.760;2023-09-07T10:49:25;6.70;;;6.15;;
5752;SDS011;2901;42.140;24.760;2023-09-07T10:51:50;6.25;;;5.63;;
5752;SDS011;2901;42.140;24.760;2023-09-07T10:56:50;18.42;;;16.65;;
5752;SDS011;2901;42.140;24.760;2023-09-07T10:59:16;9.52;;;8.63;;
5752;SDS011;2901;42.140;24.760;2023-09-07T11:01:45;15.57;;;9.43;;
5752;SDS011;2901;42.140;24.760;2023-09-07T11:04:12;6.43;;;5.80;;
5752;SDS011;2901;42.140;24.760;2023-09-07T11:06:38;6.95;;;6.55;;
5752;SDS011;2901;42.140;24.760;2023-09-07T11:09:05;9.00;;;6.32;;
5752;SDS011;2901;42.140;24.760;2023-09-07T11:11:34;8.63;;;6.80;;
5752;SDS011;2901;42.140;24.760;2023-09-07T11:14:01;11.32;;;5.68;;
5752;SDS011;2901;42.140;24.760;2023-09-07T11:16:28;9.10;;;6.03;;
5752;SDS011;2901;42.140;24.760;2023-09-07T11:18:54;6.43;;;5.72;;
5752;SDS011;2901;42.140;24.760;2023-09-07T11:21:20;5.90;;;5.50;;
5752;SDS011;2901;42.140;24.760;2023-09-07T11:23:46;6.43;;;5.65;;
5752;SDS011;2901;42.140;24.760;2023-09-07T11:26:11;7.43;;;5.72;;
5752;SDS011;2901;42.140;24.760;2023-09-07T11:28:37;6.25;;;5.18;;
5752;SDS011;2901;42.140;24.760;2023-09-07T11:31:03;5.78;;;5.32;;
5752;SDS011;2901;42.140;24.760;2023-09-07T11:33:31;5.55;;;5.15;;
5752;SDS011;2901;42.140;24.760;2023-09-07T11:35:57;9.23;;;5.30;;
5752;SDS011;2901;42.140;24.760;2023-09-07T11:38:22;10.50;;;5.38;;
5752;SDS011;2901;42.140;24.760;2023-09-07T11:40:48;8.63;;;5.75;;
5752;SDS011;2901;42.140;24.760;2023-09-07T11:43:14;7.32;;;5.55;;
5752;SDS011;2901;42.140;24.760;2023-09-07T11:45:41;5.00;;;4.60;;
5752;SDS011;2901;42.140;24.760;2023-09-07T11:48:08;5.47;;;5.07;;
5752;SDS011;2901;42.140;24.760;2023-09-07T11:50:34;8.05;;;5.20;;
5752;SDS011;2901;42.140;24.760;2023-09-07T11:53:00;5.72;;;5.38;;
5752;SDS011;2901;42.140;24.760;2023-09-07T11:55:26;5.97;;;5.00;;
5752;SDS011;2901;42.140;24.760;2023-09-07T11:57:51;5.90;;;5.40;;
5752;SDS011;2901;42.140;24.760;2023-09-07T12:00:17;5.80;;;5.43;;
5752;SDS011;2901;42.140;24.760;2023-09-07T12:02:42;7.38;;;5.28;;
5752;SDS011;2901;42.140;24.760;2023-09-07T12:05:08;5.45;;;5.05;;
5752;SDS011;2901;42.140;24.760;2023-09-07T12:07:34;6.82;;;5.63;;
5752;SDS011;2901;42.140;24.760;2023-09-07T12:10:01;6.68;;;5.80;;
5752;SDS011;2901;42.140;24.760;2023-09-07T12:12:27;6.05;;;5.65;;
5752;SDS011;2901;42.140;24.760;2023-09-07T12:14:52;5.53;;;5.05;;
5752;SDS011;2901;42.140;24.760;2023-09-07T12:17:17;5.30;;;4.97;;
5752;SDS011;2901;42.140;24.760;2023-09-07T12:19:44;5.07;;;4.70;;
5752;SDS011;2901;42.140;24.760;2023-09-07T12:22:11;6.10;;;5.57;;
5752;SDS011;2901;42.140;24.760;2023-09-07T12:24:36;6.53;;;5.95;;
5752;SDS011;2901;42.140;24.760;2023-09-07T12:27:02;10.90;;;5.22;;
5752;SDS011;2901;42.140;24.760;2023-09-07T12:29:27;4.75;;;4.32;;
5752;SDS011;2901;42.140;24.760;2023-09-07T12:31:52;12.82;;;5.80;;
5752;SDS011;2901;42.140;24.760;2023-09-07T12:34:18;5.30;;;4.90;;
5752;SDS011;2901;42.140;24.760;2023-09-07T12:36:43;5.07;;;4.75;;
5752;SDS011;2901;42.140;24.760;2023-09-07T12:39:08;5.55;;;4.95;;
5752;SDS011;2901;42.140;24.760;2023-09-07T12:41:37;5.28;;;4.90;;
5752;SDS011;2901;42.140;24.760;2023-09-07T12:44:02;8.40;;;4.88;;
5752;SDS011;2901;42.140;24.760;2023-09-07T12:46:28;6.38;;;5.88;;
5752;SDS011;2901;42.140;24.760;2023-09-07T12:48:53;6.57;;;5.88;;
5752;SDS011;2901;42.140;24.760;2023-09-07T12:51:19;4.72;;;4.38;;
5752;SDS011;2901;42.140;24.760;2023-09-07T12:53:44;4.88;;;4.45;;
5752;SDS011;2901;42.140;24.760;2023-09-07T12:56:10;7.50;;;5.05;;
5752;SDS011;2901;42.140;24.760;2023-09-07T12:58:35;11.65;;;4.78;;
5752;SDS011;2901;42.140;24.760;2023-09-07T13:01:00;7.70;;;4.60;;
5752;SDS011;2901;42.140;24.760;2023-09-07T13:03:26;5.53;;;5.03;;
5752;SDS011;2901;42.140;24.760;2023-09-07T13:05:51;4.95;;;4.65;;
5752;SDS011;2901;42.140;24.760;2023-09-07T13:08:16;5.68;;;4.78;;
5752;SDS011;2901;42.140;24.760;2023-09-07T13:10:42;5.18;;;4.78;;
5752;SDS011;2901;42.140;24.760;2023-09-07T13:13:07;5.57;;;4.90;;
5752;SDS011;2901;42.140;24.760;2023-09-07T13:15:33;9.05;;;5.13;;
5752;SDS011;2901;42.140;24.760;2023-09-07T13:17:59;5.40;;;5.00;;
5752;SDS011;2901;42.140;24.760;2023-09-07T13:20:24;5.30;;;4.93;;
5752;SDS011;2901;42.140;24.760;2023-09-07T13:22:50;6.32;;;4.65;;
5752;SDS011;2901;42.140;24.760;2023-09-07T13:25:15;5.95;;;5.43;;
5752;SDS011;2901;42.140;24.760;2023-09-07T13:27:40;5.47;;;5.03;;
5752;SDS011;2901;42.140;24.760;2023-09-07T13:30:06;5.43;;;5.10;;
5752;SDS011;2901;42.140;24.760;2023-09-07T13:32:33;7.30;;;5.28;;
5752;SDS011;2901;42.140;24.760;2023-09-07T13:34:59;4.93;;;4.63;;
5752;SDS011;2901;42.140;24.760;2023-09-07T13:37:24;5.20;;;4.82;;
5752;SDS011;2901;42.140;24.760;2023-09-07T13:39:50;6.20;;;5.57;;
5752;SDS011;2901;42.140;24.760;2023-09-07T13:42:15;5.90;;;5.50;;
5752;SDS011;2901;42.140;24.760;2023-09-07T13:44:40;5.32;;;4.90;;
5752;SDS011;2901;42.140;24.760;2023-09-07T13:47:06;6.03;;;5.10;;
5752;SDS011;2901;42.140;24.760;2023-09-07T13:49:33;5.32;;;5.03;;
5752;SDS011;2901;42.140;24.760;2023-09-07T13:51:59;5.72;;;5.35;;
5752;SDS011;2901;42.140;24.760;2023-09-07T13:54:24;5.75;;;5.22;;
5752;SDS011;2901;42.140;24.760;2023-09-07T13:56:49;5.60;;;5.25;;
5752;SDS011;2901;42.140;24.760;2023-09-07T13:59:15;7.60;;;5.40;;
5752;SDS011;2901;42.140;24.760;2023-09-07T14:01:40;6.03;;;5.53;;
5752;SDS011;2901;42.140;24.760;2023-09-07T14:04:06;6.82;;;5.85;;
5752;SDS011;2901;42.140;24.760;2023-09-07T14:06:31;9.55;;;5.90;;
5752;SDS011;2901;42.140;24.760;2023-09-07T14:08:57;6.28;;;5.88;;
5752;SDS011;2901;42.140;24.760;2023-09-07T14:11:23;9.88;;;5.57;;
5752;SDS011;2901;42.140;24.760;2023-09-07T14:13:48;6.63;;;5.55;;
5752;SDS011;2901;42.140;24.760;2023-09-07T14:16:20;5.10;;;4.80;;
5752;SDS011;2901;42.140;24.760;2023-09-07T14:18:46;8.00;;;5.75;;
5752;SDS011;2901;42.140;24.760;2023-09-07T14:21:13;6.53;;;5.68;;
5752;SDS011;2901;42.140;24.760;2023-09-07T14:23:39;5.63;;;5.20;;
5752;SDS011;2901;42.140;24.760;2023-09-07T14:26:05;10.43;;;5.75;;
5752;SDS011;2901;42.140;24.760;2023-09-07T14:28:31;5.38;;;4.95;;
5752;SDS011;2901;42.140;24.760;2023-09-07T14:30:56;7.30;;;6.65;;
5752;SDS011;2901;42.140;24.760;2023-09-07T14:33:23;6.10;;;5.70;;
5752;SDS011;2901;42.140;24.760;2023-09-07T14:35:50;6.30;;;5.85;;
5752;SDS011;2901;42.140;24.760;2023-09-07T14:38:19;6.70;;;5.97;;
5752;SDS011;2901;42.140;24.760;2023-09-07T14:40:44;7.80;;;6.10;;
5752;SDS011;2901;42.140;24.760;2023-09-07T14:43:10;5.95;;;5.55;;
5752;SDS011;2901;42.140;24.760;2023-09-07T14:45:36;5.75;;;5.32;;